This is the latest recevied weather packets stored in our database for station/object KE8GJZ-1. If no packets are shown the sender has not sent any weather packets the latest 10 day(s).
| Time | Temp. | Humidity | Pressure | Rain* | Wind** | Luminosity | Snow |
|---|---|---|---|---|---|---|---|
| 1777248848 | 13.33° C | 58% | 1018 hPa | 0 mm | - | 5 W/m² | - |
| 1777248545 | 13.33° C | 59% | 1017.8 hPa | 0 mm | - | 6 W/m² | - |
| 1777248242 | 13.33° C | 60% | 1018.1 hPa | 0 mm | - | 9 W/m² | - |
| 1777247936 | 13.89° C | 60% | 1018 hPa | 0 mm | - | 10 W/m² | - |
| 1777247631 | 13.89° C | 60% | 1017.9 hPa | 0 mm | - | 12 W/m² | - |
| 1777247330 | 13.89° C | 61% | 1018 hPa | 0 mm | - | 14 W/m² | - |
| 1777247027 | 13.89° C | 58% | 1018.3 hPa | 0 mm | - | 16 W/m² | - |
| 1777246723 | 14.44° C | 58% | 1018 hPa | 0 mm | - | 19 W/m² | - |
| 1777246419 | 14.44° C | 60% | 1018.1 hPa | 0 mm | - | 20 W/m² | - |
| 1777246117 | 14.44° C | 59% | 1018 hPa | 0 mm | - | 22 W/m² | - |
| 1777245815 | 15° C | 58% | 1018 hPa | 0 mm | - | 24 W/m² | - |
| 1777245513 | 15° C | 57% | 1018 hPa | 0 mm | - | 24 W/m² | - |
| 1777245208 | 15° C | 57% | 1018.1 hPa | 0 mm | - | 26 W/m² | - |
| 1777244904 | 15.56° C | 58% | 1018.2 hPa | 0 mm | - | 32 W/m² | - |
| 1777244600 | 15.56° C | 59% | 1018.2 hPa | 0 mm | - | 39 W/m² | - |
| 1777244296 | 15.56° C | 62% | 1018.2 hPa | 0 mm | - | 34 W/m² | - |
| 1777243994 | 15.56° C | 60% | 1018 hPa | 0 mm | - | 46 W/m² | - |
| 1777243691 | 15.56° C | 62% | 1018.1 hPa | 0 mm | - | 57 W/m² | - |
| 1777243388 | 16.11° C | 60% | 1018.2 hPa | 0 mm | - | 81 W/m² | - |
| 1777243083 | 16.11° C | 60% | 1017.9 hPa | 0 mm | - | 45 W/m² | - |
| 1777242780 | 16.11° C | 58% | 1018.1 hPa | 0 mm | - | 72 W/m² | - |
| 1777242477 | 16.11° C | 57% | 1018 hPa | 0 mm | - | 49 W/m² | - |
| 1777242173 | 16.11° C | 58% | 1018.1 hPa | 0 mm | - | 57 W/m² | - |
| 1777241870 | 16.67° C | 55% | 1017.8 hPa | 0 mm | - | 52 W/m² | - |
| 1777241568 | 16.11° C | 55% | 1018 hPa | 0 mm | - | 71 W/m² | - |
* Rain latest hour (hover to see other rain measurements)
** Current wind speed in m/s (hover to see current wind gust speed)